Time;durP1;ratioP1;P1;durP2;ratioP2;P2;SDS_P1;SDS_P2;PMS_P1;PMS_P2;Temp;Humidity;BMP_temperature;BMP_pressure;BME280_temperature;BME280_humidity;BME280_pressure;Samples;Min_cycle;Max_cycle;Signal;HPM_P1;HPM_P2
2021/03/26 00:00:39;;;;;;;;;;;;;;;2.21;54.66;97081.22;1778572;80;20529;-56
2021/03/26 00:03:11;;;;;;;;;;;;;;;2.10;54.97;97083.25;1774601;80;22146;-52
2021/03/26 00:05:43;;;;;;;;;;;;;;;1.93;55.14;97077.34;1767754;80;20222;-50
2021/03/26 00:08:13;;;;;;;;;;;;;;;1.80;55.55;97076.39;1766669;80;20483;-52
2021/03/26 00:10:42;;;;;;;;;;;;;;;1.71;55.80;97084.34;1761735;80;20219;-51
2021/03/26 00:13:10;;;;;;;;;;;;;;;1.68;56.02;97081.00;1776656;80;20244;-51
2021/03/26 00:15:40;;;;;;;;;;;;;;;1.65;56.07;97089.16;1780425;80;21621;-51
2021/03/26 00:18:07;;;;;;;;;;;;;;;1.62;56.20;97085.41;1776011;80;20238;-51
2021/03/26 00:20:35;;;;;;;;;;;;;;;1.64;56.24;97086.64;1747405;80;20211;-52
2021/03/26 00:23:05;;;;;;;;;;;;;;;1.61;56.15;97082.47;1778050;80;20218;-52
2021/03/26 00:25:33;;;;;;;;;;;;;;;1.62;56.32;97083.30;1779331;80;20278;-51
2021/03/26 00:28:01;;;;;;;;;;;;;;;1.65;56.18;97081.94;1782289;80;21376;-51
2021/03/26 00:30:28;;;;;;;;;;;;;;;1.68;56.15;97078.44;1777260;80;21915;-51
2021/03/26 00:32:56;;;;;;;;;;;;;;;1.65;56.04;97081.94;1786231;80;20266;-51
2021/03/26 00:35:25;;;;;;;;;;;;;;;1.63;56.11;97081.15;1783185;80;20225;-50
2021/03/26 00:37:54;;;;;;;;;;;;;;;1.59;56.14;97076.98;1749660;80;20210;-50
2021/03/26 00:40:22;;;;;;;;;;;;;;;1.51;56.19;97075.07;1791110;80;21206;-50
2021/03/26 00:42:50;;;;;;;;;;;;;;;1.40;56.38;97073.64;1771991;80;20224;-51
2021/03/26 00:45:20;;;;;;;;;;;;;;;1.31;56.66;97076.88;1761174;80;20495;-51
2021/03/26 00:47:52;;;;;;;;;;;;;;;1.28;56.72;97079.92;1766602;80;20240;-51
2021/03/26 00:50:23;;;;;;;;;;;;;;;1.27;56.87;97073.56;1776349;80;20214;-51
2021/03/26 00:52:51;;;;;;;;;;;;;;;1.23;57.13;97074.09;1773742;80;21267;-51
2021/03/26 00:55:20;;;;;;;;;;;;;;;1.16;57.14;97067.44;1761351;80;20234;-52
2021/03/26 00:57:48;;;;;;;;;;;;;;;1.05;57.35;97069.00;1778428;80;20238;-51
2021/03/26 01:00:19;;;;;;;;;;;;;;;1.03;57.51;97069.45;1781646;80;20502;-54
2021/03/26 01:02:46;;;;;;;;;;;;;;;1.04;57.58;97066.48;1769684;80;20225;-53
2021/03/26 01:05:33;;;;;;;;;;;;;;;1.04;57.56;97074.14;1741799;81;22125;-52
2021/03/26 01:08:01;;;;;;;;;;;;;;;1.03;57.52;97075.02;1760778;81;20218;-51
2021/03/26 01:10:32;;;;;;;;;;;;;;;1.00;57.65;97076.36;1766173;80;20222;-51
2021/03/26 01:12:59;;;;;;;;;;;;;;;1.01;57.65;97076.33;1765289;80;20217;-51
2021/03/26 01:15:30;;;;;;;;;;;;;;;1.06;57.62;97080.05;1770581;80;20230;-52
2021/03/26 01:18:01;;;;;;;;;;;;;;;1.10;57.48;97077.39;1768584;80;22343;-53
2021/03/26 01:20:31;;;;;;;;;;;;;;;1.12;57.40;97081.60;1757877;80;20223;-52
2021/03/26 01:22:58;;;;;;;;;;;;;;;1.14;57.47;97083.70;1758754;80;20232;-51
2021/03/26 01:25:33;;;;;;;;;;;;;;;1.15;57.40;97085.36;1779953;80;20239;-51
2021/03/26 01:28:04;;;;;;;;;;;;;;;1.13;57.31;97080.73;1762483;80;20244;-50
2021/03/26 01:30:32;;;;;;;;;;;;;;;1.08;57.41;97077.84;1769880;80;21203;-52
2021/03/26 01:33:01;;;;;;;;;;;;;;;1.01;57.60;97079.33;1770350;80;20256;-51
2021/03/26 01:35:32;;;;;;;;;;;;;;;0.95;57.67;97082.86;1783593;80;20518;-51
2021/03/26 01:38:00;;;;;;;;;;;;;;;0.89;57.92;97081.30;1783182;80;20703;-52
2021/03/26 01:40:29;;;;;;;;;;;;;;;0.83;58.08;97080.16;1785441;80;20222;-52
2021/03/26 01:43:07;;;;;;;;;;;;;;;0.82;58.08;97081.06;1722898;82;21363;-52
2021/03/26 01:45:42;;;;;;;;;;;;;;;0.80;58.21;97078.95;1867877;75;20220;-52
2021/03/26 01:48:14;;;;;;;;;;;;;;;0.70;58.38;97082.16;1820374;77;20152;-51
2021/03/26 01:50:42;;;;;;;;;;;;;;;0.63;58.67;97079.81;1821745;77;21416;-52
2021/03/26 01:53:10;;;;;;;;;;;;;;;0.54;58.86;97080.42;1801793;78;20210;-51
2021/03/26 01:55:45;;;;;;;;;;;;;;;0.48;59.31;97085.66;1821767;77;20113;-52
2021/03/26 01:58:20;;;;;;;;;;;;;;;0.42;59.49;97084.52;1833052;77;20123;-51
2021/03/26 02:00:51;;;;;;;;;;;;;;;0.43;59.47;97086.62;1825877;77;20220;-51
2021/03/26 02:03:22;;;;;;;;;;;;;;;0.40;59.49;97091.82;1827360;78;21364;-51
2021/03/26 02:05:54;;;;;;;;;;;;;;;0.37;59.67;97091.44;1839586;78;20127;-53
2021/03/26 02:08:34;;;;;;;;;;;;;;;0.34;59.68;97085.12;1829943;78;20214;-53
2021/03/26 02:11:07;;;;;;;;;;;;;;;0.30;59.80;97089.91;1828570;78;20488;-53
2021/03/26 02:13:36;;;;;;;;;;;;;;;0.29;59.67;97094.59;1812421;78;20274;-53
2021/03/26 02:16:19;;;;;;;;;;;;;;;0.29;59.68;97095.42;1813130;78;21392;-52
2021/03/26 02:18:55;;;;;;;;;;;;;;;0.32;59.70;97092.81;1785290;78;20210;-52
2021/03/26 02:21:26;;;;;;;;;;;;;;;0.31;59.67;97082.63;1767965;79;20196;-52
2021/03/26 02:23:56;;;;;;;;;;;;;;;0.25;59.88;97094.27;1754608;82;20223;-52
2021/03/26 02:26:30;;;;;;;;;;;;;;;0.25;59.83;97095.55;1772865;80;20556;-52
2021/03/26 02:28:58;;;;;;;;;;;;;;;0.25;59.88;97100.20;1738735;82;21219;-51
2021/03/26 02:31:45;;;;;;;;;;;;;;;0.22;59.82;97098.98;1744175;81;20695;-52
2021/03/26 02:34:13;;;;;;;;;;;;;;;0.16;59.94;97108.91;1738566;81;20510;-51
2021/03/26 02:36:43;;;;;;;;;;;;;;;0.18;60.01;97105.88;1747997;82;20522;-52
2021/03/26 02:39:16;;;;;;;;;;;;;;;0.16;60.05;97101.66;1743509;82;20245;-52
2021/03/26 02:41:46;;;;;;;;;;;;;;;0.12;60.14;97107.27;1756399;80;21311;-51
2021/03/26 02:44:23;;;;;;;;;;;;;;;0.04;60.38;97107.03;1746858;82;20227;-51
2021/03/26 02:47:07;;;;;;;;;;;;;;;-0.02;60.65;97102.88;1770111;80;20213;-51
2021/03/26 02:49:53;;;;;;;;;;;;;;;-0.05;60.85;97103.80;1729692;81;20247;-52
2021/03/26 02:52:30;;;;;;;;;;;;;;;-0.06;60.80;97111.48;1743118;81;20224;-52
2021/03/26 02:55:06;;;;;;;;;;;;;;;-0.04;60.77;97107.18;1743196;81;21333;-52
2021/03/26 02:57:46;;;;;;;;;;;;;;;-0.02;60.78;97116.50;1758017;81;20218;-51
2021/03/26 03:00:30;;;;;;;;;;;;;;;0.04;60.66;97109.59;1770006;81;20277;-51
2021/03/26 03:02:59;;;;;;;;;;;;;;;0.07;60.57;97113.36;1743034;81;20224;-50
2021/03/26 03:05:33;;;;;;;;;;;;;;;0.12;60.46;97108.55;1740671;81;20232;-50
2021/03/26 03:08:08;;;;;;;;;;;;;;;0.20;60.35;97112.23;1762682;81;21212;-50
2021/03/26 03:10:44;;;;;;;;;;;;;;;0.25;60.12;97111.69;1769888;80;20233;-50
2021/03/26 03:13:15;;;;;;;;;;;;;;;0.28;60.02;97112.91;1722164;82;20219;-51
2021/03/26 03:15:52;;;;;;;;;;;;;;;0.26;59.86;97110.80;1751090;81;20258;-51
2021/03/26 03:18:27;;;;;;;;;;;;;;;0.24;60.00;97120.20;1747368;81;20219;-51
2021/03/26 03:21:02;;;;;;;;;;;;;;;0.18;60.04;97114.81;1770229;81;21152;-51
2021/03/26 03:23:35;;;;;;;;;;;;;;;0.10;60.08;97110.30;1769611;81;20214;-50
2021/03/26 03:26:15;;;;;;;;;;;;;;;0.02;60.23;97116.00;1755308;81;20217;-51
2021/03/26 03:28:55;;;;;;;;;;;;;;;-0.06;60.36;97120.41;1748430;81;20220;-52
2021/03/26 03:31:34;;;;;;;;;;;;;;;-0.07;60.52;97113.17;1823652;76;20723;-52
2021/03/26 03:34:18;;;;;;;;;;;;;;;-0.13;60.43;97116.28;1806832;79;20274;-53
2021/03/26 03:37:02;;;;;;;;;;;;;;;-0.24;60.57;97130.09;1817327;78;21263;-52
2021/03/26 03:39:45;;;;;;;;;;;;;;;-0.28;60.79;97121.23;1818105;79;20133;-52
2021/03/26 03:42:29;;;;;;;;;;;;;;;-0.31;60.84;97125.12;1805966;79;20507;-51
2021/03/26 03:45:02;;;;;;;;;;;;;;;-0.29;60.94;97120.85;1767285;80;20222;-52
2021/03/26 03:47:38;;;;;;;;;;;;;;;-0.26;60.92;97124.19;1744620;81;20261;-52
2021/03/26 03:50:18;;;;;;;;;;;;;;;-0.17;60.74;97123.60;1745271;81;21984;-51
2021/03/26 03:52:51;;;;;;;;;;;;;;;-0.13;60.48;97129.03;1757554;81;20149;-52
2021/03/26 03:55:28;;;;;;;;;;;;;;;-0.11;60.77;97130.70;1764181;79;20263;-50
2021/03/26 03:58:01;;;;;;;;;;;;;;;-0.10;61.00;97128.98;1751363;81;20224;-50
2021/03/26 04:00:34;;;;;;;;;;;;;;;-0.10;60.27;97131.53;1741512;81;20224;-53
2021/03/26 04:03:21;;;;;;;;;;;;;;;-0.14;60.30;97126.09;1723566;80;21402;-52
2021/03/26 04:06:00;;;;;;;;;;;;;;;-0.22;60.36;97126.23;1728674;82;20227;-50
2021/03/26 04:08:38;;;;;;;;;;;;;;;-0.21;60.43;97127.48;1743480;80;20488;-50
2021/03/26 04:11:20;;;;;;;;;;;;;;;-0.26;60.44;97124.62;1710812;82;20462;-52
2021/03/26 04:13:51;;;;;;;;;;;;;;;-0.26;60.47;97122.91;1721102;82;20213;-51
2021/03/26 04:16:20;;;;;;;;;;;;;;;-0.24;60.39;97136.46;1733502;83;21168;-50
2021/03/26 04:19:01;;;;;;;;;;;;;;;-0.27;60.32;97131.41;1676284;84;21424;-50
2021/03/26 04:21:34;;;;;;;;;;;;;;;-0.33;60.33;97128.14;1693795;81;20231;-50
2021/03/26 04:24:17;;;;;;;;;;;;;;;-0.37;60.51;97126.09;1737172;81;20232;-50
2021/03/26 04:27:03;;;;;;;;;;;;;;;-0.33;60.51;97128.14;1616707;82;20542;-53
2021/03/26 04:29:48;;;;;;;;;;;;;;;-0.29;60.44;97127.23;1731460;82;21227;-51
2021/03/26 04:32:19;;;;;;;;;;;;;;;-0.27;60.24;97127.59;1740052;82;20487;-50
2021/03/26 04:34:47;;;;;;;;;;;;;;;-0.21;60.08;97127.48;1714856;82;20230;-50
2021/03/26 04:37:30;;;;;;;;;;;;;;;-0.06;59.86;97131.89;1737403;82;20231;-51
2021/03/26 04:40:15;;;;;;;;;;;;;;;0.11;59.37;97131.09;1738156;80;20644;-51
2021/03/26 04:43:03;;;;;;;;;;;;;;;0.34;58.57;97137.45;1736454;81;21226;-50
2021/03/26 04:45:53;;;;;;;;;;;;;;;0.52;58.08;97138.32;1737300;82;20563;-51
2021/03/26 04:48:38;;;;;;;;;;;;;;;0.81;57.36;97144.96;1708658;82;20292;-51
2021/03/26 04:51:13;;;;;;;;;;;;;;;1.15;56.51;97143.73;1708008;82;20520;-52
2021/03/26 04:54:08;;;;;;;;;;;;;;;1.60;55.54;97139.61;1736482;82;20219;-52
2021/03/26 04:56:45;;;;;;;;;;;;;;;2.05;53.95;97146.54;1725691;82;22120;-52
2021/03/26 04:59:19;;;;;;;;;;;;;;;2.29;53.14;97149.69;1708566;82;20220;-51
2021/03/26 05:01:52;;;;;;;;;;;;;;;2.56;52.38;97144.19;1701127;82;20219;-51
2021/03/26 05:04:25;;;;;;;;;;;;;;;2.82;51.47;97144.31;1736698;82;20239;-51
2021/03/26 05:07:02;;;;;;;;;;;;;;;2.90;50.79;97147.03;1736725;82;20501;-51
2021/03/26 05:09:37;;;;;;;;;;;;;;;3.00;50.37;97139.06;1706855;82;21218;-51
2021/03/26 05:12:30;;;;;;;;;;;;;;;3.08;50.12;97148.63;1735168;82;20218;-50
2021/03/26 05:15:14;;;;;;;;;;;;;;;3.21;49.68;97148.63;1721269;82;20198;-51
2021/03/26 05:17:55;;;;;;;;;;;;;;;3.36;49.34;97147.74;1716189;82;20294;-51
2021/03/26 05:20:32;;;;;;;;;;;;;;;3.46;49.18;97158.09;1727227;82;20573;-51
2021/03/26 05:23:21;;;;;;;;;;;;;;;3.79;48.58;97160.41;1731769;80;21343;-51
2021/03/26 05:25:59;;;;;;;;;;;;;;;4.17;47.98;97160.80;1701538;82;20233;-51
2021/03/26 05:28:31;;;;;;;;;;;;;;;4.77;47.03;97160.72;1729487;82;20222;-51
2021/03/26 05:31:10;;;;;;;;;;;;;;;5.28;45.41;97165.59;1728176;81;20520;-51
2021/03/26 05:33:44;;;;;;;;;;;;;;;5.62;44.92;97160.38;1730316;82;20243;-51
2021/03/26 05:36:23;;;;;;;;;;;;;;;6.16;43.87;97163.28;1698220;82;21245;-52
2021/03/26 05:39:16;;;;;;;;;;;;;;;6.73;42.95;97157.70;1730064;82;20218;-51
2021/03/26 05:42:29;;;;;;;;;;;;;;;7.39;40.46;97160.20;1737325;82;20290;-51
2021/03/26 05:45:21;;;;;;;;;;;;;;;7.39;40.43;97163.25;1732132;82;20227;-50
2021/03/26 05:48:21;;;;;;;;;;;;;;;7.52;40.40;97167.73;1700115;84;20264;-51
2021/03/26 05:51:18;;;;;;;;;;;;;;;7.86;38.77;97167.35;1727380;82;21219;-52
2021/03/26 05:53:59;;;;;;;;;;;;;;;7.74;38.71;97168.78;1722572;82;20243;-52
2021/03/26 05:57:12;;;;;;;;;;;;;;;7.55;39.76;97166.75;1736364;82;20494;-53
2021/03/26 05:59:50;;;;;;;;;;;;;;;7.88;38.69;97179.73;1732216;82;20531;-51
2021/03/26 06:02:43;;;;;;;;;;;;;;;7.80;38.82;97179.28;1736190;82;20214;-51
2021/03/26 06:05:42;;;;;;;;;;;;;;;8.10;38.86;97179.93;1722693;82;21206;-54
2021/03/26 06:08:34;;;;;;;;;;;;;;;8.53;37.48;97184.19;1730771;82;20233;-51
2021/03/26 06:11:33;;;;;;;;;;;;;;;8.64;37.56;97179.28;1728367;81;20227;-51
2021/03/26 06:14:43;;;;;;;;;;;;;;;8.88;37.03;97189.25;1713004;82;20235;-51
2021/03/26 06:17:38;;;;;;;;;;;;;;;8.91;36.55;97189.06;1678150;85;20238;-52
2021/03/26 06:21:08;;;;;;;;;;;;;;;8.97;36.30;97196.50;1838416;76;20192;-52
2021/03/26 06:24:25;;;;;;;;;;;;;;;9.03;36.24;97196.64;1798419;79;20224;-51
2021/03/26 06:27:04;;;;;;;;;;;;;;;9.32;35.68;97195.48;1810718;79;21196;-51
2021/03/26 06:29:38;;;;;;;;;;;;;;;9.24;35.62;97193.77;1817017;78;20221;-51
2021/03/26 06:32:43;;;;;;;;;;;;;;;9.20;35.65;97193.12;1785978;79;20168;-52
2021/03/26 06:35:51;;;;;;;;;;;;;;;9.30;35.94;97200.73;1799254;79;20244;-51
2021/03/26 06:38:31;;;;;;;;;;;;;;;9.78;35.13;97201.94;1786561;79;20478;-51
2021/03/26 06:41:05;;;;;;;;;;;;;;;10.12;34.41;97197.39;1809464;79;21481;-52
2021/03/26 06:44:01;;;;;;;;;;;;;;;10.26;34.02;97197.85;1802321;77;20207;-51
2021/03/26 06:46:56;;;;;;;;;;;;;;;10.36;33.85;97200.33;1788331;79;20151;-51
2021/03/26 06:49:37;;;;;;;;;;;;;;;10.46;33.61;97198.84;1810643;79;20394;-52
2021/03/26 06:52:28;;;;;;;;;;;;;;;10.59;33.87;97211.05;1786135;79;20239;-53
2021/03/26 06:55:17;;;;;;;;;;;;;;;10.93;33.45;97202.50;1754323;79;21212;-53
2021/03/26 06:58:04;;;;;;;;;;;;;;;11.30;32.74;97204.92;1785149;79;20214;-50
2021/03/26 07:00:41;;;;;;;;;;;;;;;11.63;32.63;97198.48;1787533;79;20252;-52
2021/03/26 07:03:32;;;;;;;;;;;;;;;12.18;31.61;97197.92;1770538;80;20229;-53
2021/03/26 07:06:23;;;;;;;;;;;;;;;12.41;31.33;97200.74;1767178;80;20259;-53
2021/03/26 07:09:09;;;;;;;;;;;;;;;12.76;31.13;97201.38;1774694;80;21205;-53
2021/03/26 07:12:08;;;;;;;;;;;;;;;13.37;30.64;97198.38;1751578;80;20484;-51
2021/03/26 07:14:55;;;;;;;;;;;;;;;14.35;29.64;97193.33;1767116;81;20221;-52
2021/03/26 07:17:39;;;;;;;;;;;;;;;15.27;28.20;97198.41;1769262;80;20293;-52
2021/03/26 07:20:32;;;;;;;;;;;;;;;15.51;27.23;97202.16;1774930;79;20223;-52
2021/03/26 07:23:24;;;;;;;;;;;;;;;15.42;26.89;97201.09;1798367;79;22277;-52
2021/03/26 07:26:16;;;;;;;;;;;;;;;15.30;27.21;97206.50;1797882;79;20230;-52
2021/03/26 07:29:30;;;;;;;;;;;;;;;15.63;27.44;97199.84;1797323;79;20222;-51
2021/03/26 07:32:21;;;;;;;;;;;;;;;15.53;26.29;97200.73;1709122;83;20226;-51
2021/03/26 07:35:12;;;;;;;;;;;;;;;14.77;27.22;97200.16;1699530;83;20225;-51
2021/03/26 07:38:03;;;;;;;;;;;;;;;14.34;28.11;97196.88;1742332;81;21389;-52
2021/03/26 07:40:38;;;;;;;;;;;;;;;14.41;27.99;97203.31;1747320;81;20682;-53
2021/03/26 07:43:21;;;;;;;;;;;;;;;14.65;28.00;97204.53;1733478;83;20227;-52
2021/03/26 07:46:05;;;;;;;;;;;;;;;14.95;27.73;97204.42;1713130;83;20221;-53
2021/03/26 07:48:46;;;;;;;;;;;;;;;15.08;27.60;97203.81;1713592;83;20298;-53
2021/03/26 07:51:20;;;;;;;;;;;;;;;15.36;27.40;97202.06;1712836;83;21211;-53
2021/03/26 07:54:27;;;;;;;;;;;;;;;15.80;26.83;97204.20;1712726;84;20252;-52
2021/03/26 07:57:23;;;;;;;;;;;;;;;15.72;26.82;97204.80;1714684;82;20230;-52
2021/03/26 08:00:06;;;;;;;;;;;;;;;15.91;26.81;97204.16;1710140;82;20246;-52
2021/03/26 08:03:12;;;;;;;;;;;;;;;16.26;26.46;97204.80;1718071;82;20220;-53
2021/03/26 08:05:44;;;;;;;;;;;;;;;16.82;26.26;97205.69;1714916;82;21200;-52
2021/03/26 08:08:35;;;;;;;;;;;;;;;17.73;25.44;97197.77;1736476;82;20219;-52
2021/03/26 08:11:15;;;;;;;;;;;;;;;18.29;23.84;97201.92;1724350;81;20272;-53
2021/03/26 08:13:56;;;;;;;;;;;;;;;18.33;24.25;97203.31;1717653;81;20268;-53
2021/03/26 08:16:32;;;;;;;;;;;;;;;18.47;23.95;97196.77;1760833;80;20220;-53
2021/03/26 08:19:22;;;;;;;;;;;;;;;19.13;24.04;97208.99;1723172;80;21372;-53
2021/03/26 08:22:20;;;;;;;;;;;;;;;20.25;22.96;97207.75;1736438;81;20498;-53
2021/03/26 08:25:02;;;;;;;;;;;;;;;20.81;21.46;97206.13;1710578;82;20286;-53
2021/03/26 08:27:37;;;;;;;;;;;;;;;21.03;21.18;97202.09;1736722;82;20235;-53
2021/03/26 08:30:25;;;;;;;;;;;;;;;21.45;21.02;97207.34;1728795;82;20224;-53
2021/03/26 08:33:19;;;;;;;;;;;;;;;22.09;20.50;97206.77;1731101;82;21154;-53
2021/03/26 08:36:06;;;;;;;;;;;;;;;22.91;20.13;97202.67;1742499;82;20514;-53
2021/03/26 08:38:46;;;;;;;;;;;;;;;23.62;19.05;97203.98;1725228;82;20225;-53
2021/03/26 08:41:16;;;;;;;;;;;;;;;23.59;18.77;97204.33;1726889;82;20219;-53
2021/03/26 08:43:47;;;;;;;;;;;;;;;23.43;19.03;97208.41;1740224;82;20229;-53
2021/03/26 08:46:18;;;;;;;;;;;;;;;23.25;18.88;97206.02;1742698;82;22032;-53
2021/03/26 08:48:58;;;;;;;;;;;;;;;22.89;18.87;97200.67;1736884;82;20761;-53
2021/03/26 08:51:46;;;;;;;;;;;;;;;22.60;19.25;97202.60;1736818;82;20501;-52
2021/03/26 08:54:47;;;;;;;;;;;;;;;22.62;19.37;97206.41;1736779;81;20155;-52
2021/03/26 08:57:54;;;;;;;;;;;;;;;22.98;19.13;97206.27;1716837;82;20243;-52
2021/03/26 09:00:54;;;;;;;;;;;;;;;23.56;18.87;97199.38;1736722;81;22009;-51
2021/03/26 09:03:28;;;;;;;;;;;;;;;24.19;18.18;97202.72;1736745;82;20226;-51
2021/03/26 09:06:19;;;;;;;;;;;;;;;24.33;17.96;97197.66;1721145;82;20236;-52
2021/03/26 09:08:53;;;;;;;;;;;;;;;24.28;18.03;97196.87;1707411;82;20245;-53
2021/03/26 09:11:36;;;;;;;;;;;;;;;24.39;18.21;97200.89;1716046;82;20522;-52
2021/03/26 09:14:28;;;;;;;;;;;;;;;24.60;17.89;97199.70;1736897;82;22387;-53
2021/03/26 09:17:11;;;;;;;;;;;;;;;24.77;17.54;97196.39;1708375;82;20245;-52
2021/03/26 09:19:48;;;;;;;;;;;;;;;25.03;17.25;97200.89;1706565;82;20480;-52
2021/03/26 09:22:37;;;;;;;;;;;;;;;25.27;16.89;97199.80;1706733;81;20234;-55
2021/03/26 09:25:24;;;;;;;;;;;;;;;25.26;17.04;97198.92;1729590;82;20213;-52
2021/03/26 09:27:55;;;;;;;;;;;;;;;25.21;16.98;97203.16;1706587;83;22304;-53
2021/03/26 09:30:26;;;;;;;;;;;;;;;25.36;16.78;97203.97;1732873;82;20152;-54
2021/03/26 09:32:59;;;;;;;;;;;;;;;25.30;17.05;97206.06;1736838;81;20538;-52
2021/03/26 09:35:40;;;;;;;;;;;;;;;25.44;16.79;97209.17;1704172;82;20221;-53
2021/03/26 09:38:13;;;;;;;;;;;;;;;25.65;16.68;97204.91;1715503;82;20222;-52
2021/03/26 09:41:05;;;;;;;;;;;;;;;25.84;16.72;97206.94;1733391;82;21383;-52
2021/03/26 09:43:57;;;;;;;;;;;;;;;25.94;16.29;97201.30;1736374;82;20498;-53
2021/03/26 09:46:42;;;;;;;;;;;;;;;25.98;16.46;97202.58;1736669;82;20231;-53
2021/03/26 09:49:28;;;;;;;;;;;;;;;26.15;15.59;97208.48;1736753;82;20242;-51
2021/03/26 09:52:28;;;;;;;;;;;;;;;25.68;16.35;97198.70;1707515;82;20495;-53
2021/03/26 09:55:02;;;;;;;;;;;;;;;25.41;16.36;97201.59;1731608;82;21278;-53
2021/03/26 09:57:43;;;;;;;;;;;;;;;25.59;16.73;97203.81;1690769;84;20232;-52
2021/03/26 10:00:32;;;;;;;;;;;;;;;25.65;16.14;97203.58;1679022;82;20286;-52
2021/03/26 10:03:12;;;;;;;;;;;;;;;25.34;16.39;97208.65;1707505;82;20221;-52
2021/03/26 10:05:53;;;;;;;;;;;;;;;25.11;16.29;97207.43;1707410;82;20309;-52
2021/03/26 10:11:34;;;;;;;;;;;;;;;24.86;17.38;97207.72;1720111;82;20225;-53
2021/03/26 10:14:03;;;;;;;;;;;;;;;25.14;17.05;97205.22;1707383;84;20212;-53
2021/03/26 10:16:43;;;;;;;;;;;;;;;25.32;16.88;97202.71;1707362;84;20584;-52
2021/03/26 10:19:17;;;;;;;;;;;;;;;25.37;16.67;97197.66;1707383;82;20245;-53
2021/03/26 10:21:48;;;;;;;;;;;;;;;25.38;16.69;97194.00;1730573;82;20226;-53
2021/03/26 10:24:20;;;;;;;;;;;;;;;25.17;16.94;97198.73;1705615;84;21648;-52
2021/03/26 10:27:03;;;;;;;;;;;;;;;25.00;16.89;97199.45;1729502;82;20219;-52
2021/03/26 10:29:47;;;;;;;;;;;;;;;24.94;16.98;97203.65;1705711;82;20253;-52
2021/03/26 10:32:18;;;;;;;;;;;;;;;25.09;16.83;97196.17;1705582;84;20261;-53
2021/03/26 10:34:46;;;;;;;;;;;;;;;25.14;16.78;97193.27;1710233;82;22148;-54
2021/03/26 10:37:23;;;;;;;;;;;;;;;25.00;17.31;97195.47;1734723;81;20266;-53
2021/03/26 10:40:00;;;;;;;;;;;;;;;24.93;17.25;97187.39;1731506;82;20215;-54
2021/03/26 10:42:31;;;;;;;;;;;;;;;24.78;17.48;97191.89;1692801;84;20228;-52
2021/03/26 10:45:33;;;;;;;;;;;;;;;24.65;17.57;97193.05;1705629;84;20348;-53
2021/03/26 10:48:03;;;;;;;;;;;;;;;24.52;17.42;97187.83;1719971;82;22186;-52
2021/03/26 10:50:46;;;;;;;;;;;;;;;24.30;17.81;97194.85;1734778;82;20310;-52
2021/03/26 10:53:17;;;;;;;;;;;;;;;24.05;18.22;97198.23;1734871;82;20318;-53
2021/03/26 10:55:55;;;;;;;;;;;;;;;23.65;18.27;97189.06;1731935;82;20222;-53
2021/03/26 10:58:40;;;;;;;;;;;;;;;23.30;18.77;97193.08;1734937;82;20242;-52
2021/03/26 11:01:16;;;;;;;;;;;;;;;22.85;19.02;97189.30;1733945;82;21255;-53
2021/03/26 11:03:59;;;;;;;;;;;;;;;22.29;19.46;97186.64;1734618;82;20523;-52
2021/03/26 11:06:41;;;;;;;;;;;;;;;21.76;20.14;97180.83;1734981;82;20222;-52
2021/03/26 11:09:09;;;;;;;;;;;;;;;21.57;20.29;97181.48;1735018;82;20239;-52
2021/03/26 11:11:59;;;;;;;;;;;;;;;21.46;20.43;97172.05;1710313;82;20232;-52
2021/03/26 11:14:47;;;;;;;;;;;;;;;21.37;20.71;97170.37;1705736;84;21469;-52
2021/03/26 11:17:36;;;;;;;;;;;;;;;20.91;21.07;97175.19;1705665;84;20229;-52
2021/03/26 11:20:11;;;;;;;;;;;;;;;20.48;21.16;97171.66;1711349;81;20219;-52
2021/03/26 11:22:43;;;;;;;;;;;;;;;20.16;21.66;97169.14;1716557;82;20250;-54
2021/03/26 11:25:13;;;;;;;;;;;;;;;19.98;21.92;97164.76;1707224;82;20504;-53
2021/03/26 11:27:49;;;;;;;;;;;;;;;19.74;22.02;97152.69;1706614;84;22174;-51
2021/03/26 11:30:24;;;;;;;;;;;;;;;19.43;22.83;97162.27;1729501;82;20498;-52
2021/03/26 11:32:57;;;;;;;;;;;;;;;19.28;23.04;97161.97;1709327;82;20241;-52
2021/03/26 11:35:24;;;;;;;;;;;;;;;19.30;23.07;97162.14;1707442;84;20285;-52
2021/03/26 11:38:01;;;;;;;;;;;;;;;19.34;22.93;97157.40;1734727;82;20215;-52
2021/03/26 11:40:32;;;;;;;;;;;;;;;19.40;22.70;97152.86;1735854;81;20804;-52
2021/03/26 11:43:19;;;;;;;;;;;;;;;19.44;23.02;97157.33;1734547;82;20226;-54
2021/03/26 11:45:58;;;;;;;;;;;;;;;19.50;23.27;97142.27;1736826;82;20222;-52
2021/03/26 11:48:53;;;;;;;;;;;;;;;19.43;23.81;97152.56;1730579;82;20250;-52
2021/03/26 11:51:35;;;;;;;;;;;;;;;19.11;23.26;97151.27;1707392;84;20229;-52
2021/03/26 11:54:21;;;;;;;;;;;;;;;18.42;24.61;97147.77;1707496;84;21220;-52
2021/03/26 11:57:04;;;;;;;;;;;;;;;18.30;25.05;97153.19;1707691;82;20216;-53
2021/03/26 11:59:50;;;;;;;;;;;;;;;18.40;24.78;97143.96;1718240;82;20219;-53
2021/03/26 12:02:35;;;;;;;;;;;;;;;18.51;25.06;97140.34;1736791;82;20526;-53
2021/03/26 12:05:25;;;;;;;;;;;;;;;18.55;25.13;97135.97;1736865;82;20298;-52
2021/03/26 12:08:13;;;;;;;;;;;;;;;18.65;25.16;97145.13;1732038;82;21218;-53
2021/03/26 12:11:02;;;;;;;;;;;;;;;18.70;25.12;97139.41;1723697;82;20289;-51
2021/03/26 12:13:35;;;;;;;;;;;;;;;18.76;24.75;97139.66;1736821;82;20498;-52
2021/03/26 12:16:07;;;;;;;;;;;;;;;18.90;24.63;97130.50;1735972;82;20766;-54
2021/03/26 12:18:48;;;;;;;;;;;;;;;19.06;24.23;97125.06;1736811;82;20222;-53
2021/03/26 12:21:35;;;;;;;;;;;;;;;19.23;23.81;97117.69;1736648;81;21209;-54
2021/03/26 12:24:35;;;;;;;;;;;;;;;19.39;23.78;97116.17;1725321;82;20508;-53
2021/03/26 12:27:16;;;;;;;;;;;;;;;19.53;24.12;97116.15;1707397;82;20249;-53
2021/03/26 12:29:59;;;;;;;;;;;;;;;19.65;24.12;97114.45;1707836;82;20229;-53
2021/03/26 12:32:34;;;;;;;;;;;;;;;19.73;24.07;97117.61;1736026;82;20521;-53
2021/03/26 12:35:24;;;;;;;;;;;;;;;19.87;23.83;97111.02;1735518;82;21225;-53
2021/03/26 12:38:21;;;;;;;;;;;;;;;20.02;23.36;97109.46;1734428;82;20219;-52
2021/03/26 12:40:56;;;;;;;;;;;;;;;20.07;23.78;97106.87;1718037;80;20503;-53
2021/03/26 12:43:33;;;;;;;;;;;;;;;19.70;24.19;97102.12;1707394;84;20242;-52
2021/03/26 12:46:17;;;;;;;;;;;;;;;19.46;24.50;97104.09;1707097;82;20229;-53
2021/03/26 12:48:58;;;;;;;;;;;;;;;19.34;24.55;97101.33;1719223;82;21213;-53
2021/03/26 12:51:46;;;;;;;;;;;;;;;19.18;24.89;97107.25;1728086;82;20233;-55
2021/03/26 12:54:33;;;;;;;;;;;;;;;18.57;25.48;97100.35;1707405;84;20500;-52
2021/03/26 12:57:22;;;;;;;;;;;;;;;18.18;25.98;97100.01;1707614;82;20623;-53
2021/03/26 13:00:12;;;;;;;;;;;;;;;18.11;25.93;97096.78;1708555;82;20226;-52
2021/03/26 13:02:48;;;;;;;;;;;;;;;18.17;25.71;97097.06;1721780;82;21228;-54
2021/03/26 13:05:26;;;;;;;;;;;;;;;18.34;25.79;97102.03;1699555;84;20249;-53
2021/03/26 13:08:19;;;;;;;;;;;;;;;18.52;25.52;97100.78;1710402;82;20229;-54
2021/03/26 13:10:54;;;;;;;;;;;;;;;18.76;25.54;97093.66;1736522;82;20223;-52
2021/03/26 13:13:49;;;;;;;;;;;;;;;18.84;25.50;97091.64;1736542;82;20214;-53
2021/03/26 13:16:23;;;;;;;;;;;;;;;18.68;25.34;97089.62;1735562;82;21397;-52
2021/03/26 13:19:01;;;;;;;;;;;;;;;18.45;26.22;97097.56;1735616;82;20502;-53
2021/03/26 13:21:36;;;;;;;;;;;;;;;18.44;25.89;97092.80;1719615;82;20226;-53
2021/03/26 13:24:24;;;;;;;;;;;;;;;18.47;25.67;97096.92;1706747;84;20579;-53
2021/03/26 13:26:55;;;;;;;;;;;;;;;18.47;25.47;97096.92;1734829;82;20247;-53
2021/03/26 13:29:27;;;;;;;;;;;;;;;18.35;25.30;97093.66;1729626;81;22299;-53
2021/03/26 13:31:55;;;;;;;;;;;;;;;18.27;25.26;97093.55;1735449;82;20652;-53
2021/03/26 13:34:25;;;;;;;;;;;;;;;18.20;25.49;97094.12;1736011;82;20290;-52
2021/03/26 13:36:56;;;;;;;;;;;;;;;18.14;25.35;97095.18;1735960;82;20210;-53
2021/03/26 13:39:45;;;;;;;;;;;;;;;17.96;25.52;97089.84;1735827;82;20502;-53
2021/03/26 13:42:16;;;;;;;;;;;;;;;17.77;25.64;97086.77;1707381;84;21216;-52
2021/03/26 13:44:49;;;;;;;;;;;;;;;17.53;26.35;97088.52;1707330;84;20291;-52
2021/03/26 13:47:28;;;;;;;;;;;;;;;17.26;26.65;97088.25;1708121;82;20262;-53
2021/03/26 13:49:59;;;;;;;;;;;;;;;17.07;26.41;97077.75;1720306;81;20226;-53
2021/03/26 13:52:34;;;;;;;;;;;;;;;16.92;26.84;97084.72;1736714;82;20239;-53
2021/03/26 13:55:08;;;;;;;;;;;;;;;16.66;27.67;97085.67;1735641;82;21212;-52
2021/03/26 13:57:37;;;;;;;;;;;;;;;16.36;28.35;97079.98;1705994;82;20220;-53
2021/03/26 14:00:22;;;;;;;;;;;;;;;16.05;28.93;97087.02;1736685;82;20231;-52